createdAt,value
2019-03-13T05:03:16.804Z,99675.539
2019-03-13T05:06:45.651Z,99685.093
2019-03-13T05:10:13.489Z,99680.39
2019-03-13T05:13:41.330Z,99687.164
2019-03-13T05:17:09.171Z,99684.156
2019-03-13T05:20:37.001Z,99695.421
2019-03-13T05:24:04.850Z,99691.406
2019-03-13T05:27:32.703Z,99692.781
2019-03-13T05:31:01.537Z,99696.945
2019-03-13T05:34:29.373Z,99723.664
2019-03-13T05:37:57.224Z,99703.968
2019-03-13T05:41:25.069Z,99711.609
2019-03-13T05:44:52.909Z,99710.859
2019-03-13T05:48:20.818Z,99697.945
2019-03-13T05:51:48.634Z,99702.375
2019-03-13T05:55:17.460Z,99712.265
2019-03-13T05:58:46.301Z,99710.484
2019-03-13T06:02:15.147Z,99708.742
2019-03-13T06:05:42.995Z,99708.406
2019-03-13T06:09:11.370Z,99713.468
2019-03-13T06:12:39.212Z,99715.328
2019-03-13T06:16:07.066Z,99711.578
2019-03-13T06:19:34.892Z,99702.64
2019-03-13T06:23:02.739Z,99707.359
2019-03-13T06:26:30.583Z,99712.507
2019-03-13T06:29:58.420Z,99696.375
2019-03-13T06:33:26.329Z,99703.046
2019-03-13T06:36:54.275Z,99707.781
2019-03-13T06:40:22.222Z,99703.093
2019-03-13T06:43:50.061Z,99697.734
2019-03-13T06:47:17.912Z,99700.953
2019-03-13T06:50:46.760Z,99692.703
2019-03-13T06:54:14.600Z,99699.203
2019-03-13T06:57:42.471Z,99690.64
2019-03-13T07:01:10.295Z,99676.343
2019-03-13T07:04:38.123Z,99699.125
2019-03-13T07:08:07.874Z,99704.296
2019-03-13T07:11:35.724Z,99707.14
2019-03-13T07:15:03.574Z,99708.515
2019-03-13T07:18:31.413Z,99706.765
2019-03-13T07:22:00.254Z,99715.562
2019-03-13T07:25:28.133Z,99717.117
2019-03-13T07:28:55.960Z,99729.125
2019-03-13T07:32:26.914Z,99712.835
2019-03-13T07:35:54.746Z,99721.937
2019-03-13T07:39:22.604Z,99713.25
2019-03-13T07:42:50.450Z,99712.703
2019-03-13T07:46:18.313Z,99730.101
2019-03-13T07:49:46.146Z,99723.859
2019-03-13T07:53:13.998Z,99725.015
2019-03-13T07:56:41.842Z,99727.062
2019-03-13T08:00:09.679Z,99721.89
2019-03-13T08:03:37.521Z,99725.25
2019-03-13T08:07:05.374Z,99719.453
2019-03-13T08:10:33.210Z,99719.507
2019-03-13T08:14:01.070Z,99739.718
2019-03-13T08:17:28.915Z,99720.828
2019-03-13T08:20:56.742Z,99736.664
2019-03-13T08:24:24.580Z,99727.64
2019-03-13T08:27:52.433Z,99729.46
2019-03-13T08:31:20.277Z,99740.64
2019-03-13T08:34:48.130Z,99725.546
2019-03-13T08:38:15.983Z,99723.843
2019-03-13T08:41:43.826Z,99721.875
2019-03-13T08:45:11.652Z,99724.421
2019-03-13T08:48:39.499Z,99720.953
2019-03-13T08:52:07.349Z,99734.578
2019-03-13T08:55:35.184Z,99723.125
2019-03-13T08:59:03.034Z,99729.07
2019-03-13T09:02:31.876Z,99717.531
2019-03-13T09:05:59.709Z,99719.203
2019-03-13T09:09:27.566Z,99711.937
2019-03-13T09:12:55.414Z,99717.328
2019-03-13T09:16:26.217Z,99714.046
2019-03-13T09:19:54.064Z,99709.171
2019-03-13T09:23:21.909Z,99700.781
2019-03-13T09:26:49.748Z,99694.187
2019-03-13T09:30:17.618Z,99703.179
2019-03-13T09:33:45.437Z,99697.921
2019-03-13T09:37:13.276Z,99684.734
2019-03-13T09:40:41.123Z,99687.593
2019-03-13T09:44:08.980Z,99673.765
2019-03-13T09:47:36.813Z,99674.757
2019-03-13T09:51:04.654Z,99682.359
2019-03-13T09:54:32.534Z,99701.234
2019-03-13T09:58:00.372Z,99687.187
2019-03-13T10:01:29.209Z,99694.734
2019-03-13T10:04:58.056Z,99689.265
2019-03-13T10:08:25.890Z,99695.875
2019-03-13T10:11:53.737Z,99707.296
2019-03-13T10:15:21.587Z,99708.328
2019-03-13T10:18:49.426Z,99696.914
2019-03-13T10:22:17.406Z,99704.078
2019-03-13T10:25:45.252Z,99686.875
2019-03-13T10:29:14.080Z,99691.218
2019-03-13T10:32:41.930Z,99707.046
2019-03-13T10:36:09.783Z,99686.343
2019-03-13T10:39:37.616Z,99692.593
2019-03-13T10:43:05.461Z,99687.937
2019-03-13T10:46:33.335Z,99673.25
2019-03-13T10:50:01.180Z,99675.046
2019-03-13T10:53:29.014Z,99668.265
2019-03-13T10:56:56.864Z,99661.187
2019-03-13T11:00:24.712Z,99682.718
2019-03-13T11:03:52.534Z,99654.5
2019-03-13T11:07:46.364Z,99660.5
2019-03-13T11:11:14.212Z,99661.101
2019-03-13T11:14:42.063Z,99670.109
2019-03-13T11:18:09.901Z,99658.14
2019-03-13T11:21:37.752Z,99665.609
2019-03-13T11:25:05.601Z,99653.109
2019-03-13T11:28:33.443Z,99646.414
2019-03-13T11:32:01.296Z,99641.343
2019-03-13T11:35:29.170Z,99644.468
2019-03-13T11:38:57.012Z,99647.515
2019-03-13T11:42:24.849Z,99631.968
2019-03-13T11:45:52.703Z,99635.078
2019-03-13T11:49:20.543Z,99641.32
2019-03-13T11:52:48.397Z,99629.828
2019-03-13T11:56:16.241Z,99637.781
2019-03-13T11:59:44.093Z,99639.14
2019-03-13T12:03:11.925Z,99634.96
2019-03-13T12:06:39.817Z,99634
2019-03-13T12:10:07.618Z,99620.796
2019-03-13T12:13:35.448Z,99622.937
2019-03-13T12:17:03.325Z,99608.484
2019-03-13T12:20:31.171Z,99610.14
2019-03-13T12:23:59.025Z,99603.078
2019-03-13T12:27:26.862Z,99607.015
2019-03-13T12:30:54.745Z,99610.984
2019-03-13T12:34:22.566Z,99626.203
2019-03-13T12:37:50.399Z,99601.828
2019-03-13T12:41:18.251Z,99600.781
2019-03-13T12:44:46.099Z,99593.531
2019-03-13T12:48:17.074Z,99590.593
2019-03-13T12:51:44.752Z,99589.804
2019-03-13T12:55:12.603Z,99594.156
2019-03-13T12:58:40.447Z,99607.859
2019-03-13T13:02:09.277Z,99571.398
2019-03-13T13:05:37.876Z,99588.078
2019-03-13T13:09:05.734Z,99570.703
2019-03-13T13:12:34.608Z,99595.171
2019-03-13T13:16:02.446Z,99580.765
2019-03-13T13:19:30.299Z,99568.109
2019-03-13T13:22:58.160Z,99570.906
2019-03-13T13:26:25.987Z,99577.117
2019-03-13T13:29:53.831Z,99573.578
2019-03-13T13:33:21.698Z,99556.109
2019-03-13T13:36:49.533Z,99561.453
2019-03-13T13:40:17.376Z,99555.093
2019-03-13T13:43:45.225Z,99551.906
2019-03-13T13:47:13.060Z,99568.171
2019-03-13T13:50:41.907Z,99545.21
2019-03-13T13:54:09.769Z,99558.101
2019-03-13T13:57:37.617Z,99556.125
2019-03-13T14:01:05.655Z,99551.5
2019-03-13T14:04:33.754Z,99537.343
2019-03-13T14:08:02.952Z,99545.648
2019-03-13T14:11:32.026Z,99539.062
2019-03-13T14:15:00.011Z,99534.109
2019-03-13T14:18:28.009Z,99528.703
2019-03-13T14:21:56.188Z,99542.382
2019-03-13T14:25:24.159Z,99512.234
2019-03-13T14:28:52.462Z,99509.851
2019-03-13T14:32:20.534Z,99506.382
2019-03-13T14:35:48.767Z,99490.515
2019-03-13T14:39:16.807Z,99492.132
2019-03-13T14:42:45.992Z,99480.125
2019-03-13T14:46:13.989Z,99497.781
2019-03-13T14:49:42.228Z,99484.593
2019-03-13T14:53:11.343Z,99491.984
2019-03-13T14:56:39.388Z,99492.656
2019-03-13T15:00:07.556Z,99484.359
2019-03-13T15:03:35.630Z,99484.109
2019-03-13T15:07:05.791Z,99488.039
2019-03-13T15:10:33.914Z,99473.578
2019-03-13T15:14:01.991Z,99482.562
2019-03-13T15:17:30.144Z,99468.882
2019-03-13T15:20:58.302Z,99463.57
2019-03-13T15:24:26.604Z,99458.828
2019-03-13T15:27:54.602Z,99464.687
2019-03-13T15:31:22.714Z,99487.523
2019-03-13T15:34:50.799Z,99472.328
2019-03-13T15:38:19.014Z,99480.062
2019-03-13T15:41:46.999Z,99462.703
2019-03-13T15:45:15.273Z,99477.781
2019-03-13T15:48:43.446Z,99493.054
2019-03-13T15:52:11.518Z,99473.429
2019-03-13T15:55:39.613Z,99476
2019-03-13T15:59:07.740Z,99469.656
2019-03-13T16:02:35.695Z,99460.812
2019-03-13T16:06:03.830Z,99461.375
2019-03-13T16:09:31.942Z,99464
2019-03-13T16:12:59.999Z,99443.515
2019-03-13T16:16:28.105Z,99441.953
2019-03-13T16:19:56.302Z,99463.867
2019-03-13T16:23:24.476Z,99446.523
2019-03-13T16:26:52.538Z,99447.843
2019-03-13T16:30:21.312Z,99454.492
2019-03-13T16:33:49.456Z,99437.812
2019-03-13T16:37:17.792Z,99434.187
2019-03-13T16:40:46.008Z,99429.187
2019-03-13T16:44:16.953Z,99419.601
2019-03-13T16:47:46.134Z,99413.687
2019-03-13T16:51:14.530Z,99431.304
2019-03-13T16:54:43.325Z,99425.96
2019-03-13T16:58:12.539Z,99412.921
2019-03-13T17:01:41.859Z,99417.187
2019-03-13T17:05:10.261Z,99416.828
2019-03-13T17:08:41.116Z,99415.132
2019-03-13T17:12:09.341Z,99427.75
2019-03-13T17:15:38.725Z,99424.132
2019-03-13T17:19:07.155Z,99410.539
2019-03-13T17:22:35.445Z,99407.976
2019-03-13T17:26:06.019Z,99404.718
2019-03-13T17:29:34.246Z,99404.296
2019-03-13T17:33:09.575Z,99420.625
2019-03-13T17:36:38.915Z,99415.382
2019-03-13T17:40:08.138Z,99415.593
2019-03-13T17:43:39.746Z,99426.414
2019-03-13T17:47:07.827Z,99406.437
2019-03-13T17:50:36.810Z,99419.375
2019-03-13T17:54:05.182Z,99400.109
2019-03-13T17:57:33.489Z,99407.453
2019-03-13T18:01:02.702Z,99385.453
2019-03-13T18:04:31.071Z,99390.914
2019-03-13T18:08:00.227Z,99408.562
2019-03-13T18:11:31.023Z,99396.14
2019-03-13T18:14:59.217Z,99399.132
2019-03-13T18:18:27.727Z,99397.671
2019-03-13T18:21:56.037Z,99374.656
2019-03-13T18:25:24.397Z,99394.312
2019-03-13T18:28:52.739Z,99388.828
2019-03-13T18:32:21.232Z,99390.812
2019-03-13T18:35:50.569Z,99387.046
2019-03-13T18:39:20.912Z,99388.851
2019-03-13T18:42:50.007Z,99400.781
2019-03-13T18:46:19.313Z,99384.578
2019-03-13T18:49:48.772Z,99403.75
2019-03-13T18:53:19.502Z,99406.335
2019-03-13T18:56:47.820Z,99397.859
2019-03-13T19:00:16.222Z,99392.937
2019-03-13T19:03:46.995Z,99379.648
2019-03-13T19:07:15.484Z,99385.359
2019-03-13T19:10:43.796Z,99373.101
2019-03-13T19:14:13.076Z,99370.304
2019-03-13T19:17:43.218Z,99358.984
2019-03-13T19:21:12.565Z,99361.109
2019-03-13T19:24:42.863Z,99354.46
2019-03-13T19:28:13.002Z,99358.296
2019-03-13T19:31:41.470Z,99355.109
2019-03-13T19:35:10.743Z,99353.117
2019-03-13T19:38:41.263Z,99352.507
2019-03-13T19:42:10.247Z,99353.625
2019-03-13T19:46:05.377Z,99341.14
2019-03-13T19:49:34.641Z,99340.359
2019-03-13T19:53:04.910Z,99336.031
2019-03-13T19:56:39.283Z,99339.703
2019-03-13T20:00:08.040Z,99323.781
2019-03-13T20:03:36.439Z,99318.843
2019-03-13T20:07:05.546Z,99315.468
2019-03-13T20:10:33.920Z,99311.5
2019-03-13T20:14:02.486Z,99313.812
2019-03-13T20:17:31.770Z,99311.062
2019-03-13T20:21:00.039Z,99302.89
2019-03-13T20:24:27.896Z,99306.773
2019-03-13T20:27:57.007Z,99301.054
2019-03-13T20:31:24.994Z,99296.968
2019-03-13T20:34:53.316Z,99294.882
2019-03-13T20:38:25.856Z,99276.531
2019-03-13T20:41:55.391Z,99279.453
2019-03-13T20:45:24.558Z,99273.421
2019-03-13T20:48:52.846Z,99279.867
2019-03-13T20:52:25.402Z,99268.593
2019-03-13T20:55:58.618Z,99259.75
2019-03-13T20:59:26.066Z,99257.359
2019-03-13T21:02:58.271Z,99248.218
2019-03-13T21:06:26.870Z,99243.25
2019-03-13T21:09:56.000Z,99240.789
2019-03-13T21:13:24.231Z,99240.187
2019-03-13T21:16:53.343Z,99239.593
2019-03-13T21:20:21.531Z,99234.39
2019-03-13T21:23:49.579Z,99227.093
2019-03-13T21:27:20.049Z,99230.265
2019-03-13T21:30:48.197Z,99234.625
2019-03-13T21:34:16.407Z,99230.898
2019-03-13T21:37:44.461Z,99241.781
2019-03-13T21:41:12.324Z,99228.382
2019-03-13T21:44:41.148Z,99226.437
2019-03-13T21:48:09.019Z,99224.132
2019-03-13T21:51:37.864Z,99235.203
2019-03-13T21:55:05.706Z,99221.468
2019-03-13T21:58:33.560Z,99229.312
2019-03-13T22:02:01.403Z,99227.843
2019-03-13T22:05:29.272Z,99231.562
2019-03-13T22:08:57.094Z,99235
2019-03-13T22:12:24.934Z,99232.445
2019-03-13T22:15:52.848Z,99231.484
2019-03-13T22:19:22.614Z,99243.781
2019-03-13T22:22:50.499Z,99241.953
2019-03-13T22:26:18.338Z,99217.492
2019-03-13T22:29:46.168Z,99229.531
2019-03-13T22:33:14.025Z,99223.789
2019-03-13T22:36:41.885Z,99230.703
2019-03-13T22:40:09.705Z,99229.351
2019-03-13T22:43:37.618Z,99250.859
2019-03-13T22:47:06.396Z,99232.843
2019-03-13T22:50:34.235Z,99241.234
2019-03-13T22:54:02.084Z,99247.617
2019-03-13T22:57:29.931Z,99244.968
